Time;durP1;ratioP1;P1;durP2;ratioP2;P2;SDS_P1;SDS_P2;PMS_P1;PMS_P2;Temp;Humidity;BMP_temperature;BMP_pressure;BME280_temperature;BME280_humidity;BME280_pressure;Samples;Min_cycle;Max_cycle;Signal;HPM_P1;HPM_P2
2021/01/05 00:00:55;;;;;;;0.55;0.30;;;2.40;99.90;;;;;;5017826;28;20050;-52
2021/01/05 00:03:22;;;;;;;0.40;0.20;;;2.40;99.90;;;;;;5022780;28;20053;-52
2021/01/05 00:05:48;;;;;;;0.20;0.10;;;2.30;99.90;;;;;;5022599;28;20049;-54
2021/01/05 00:08:14;;;;;;;1.33;0.80;;;2.20;99.90;;;;;;5028132;28;20046;-54
2021/01/05 00:10:41;;;;;;;0.40;0.30;;;2.20;99.90;;;;;;5028436;28;20049;-54
2021/01/05 00:13:07;;;;;;;0.30;0.22;;;2.20;99.90;;;;;;5028321;28;20056;-52
2021/01/05 00:15:34;;;;;;;0.35;0.30;;;2.20;99.90;;;;;;5028780;28;20056;-54
2021/01/05 00:18:00;;;;;;;0.43;0.40;;;2.20;99.90;;;;;;5029531;28;20049;-53
2021/01/05 00:20:29;;;;;;;0.35;0.30;;;2.20;99.90;;;;;;5028099;28;20050;-55
2021/01/05 00:23:11;;;;;;;0.60;0.50;;;2.20;99.90;;;;;;5014436;28;20053;-53
2021/01/05 00:25:38;;;;;;;0.50;0.50;;;2.30;99.90;;;;;;5024089;28;20084;-52
2021/01/05 00:28:05;;;;;;;0.55;0.50;;;2.30;99.90;;;;;;5013555;28;20046;-54
2021/01/05 00:30:31;;;;;;;0.68;0.50;;;2.20;99.90;;;;;;5024026;28;20042;-54
2021/01/05 00:32:58;;;;;;;0.40;0.40;;;2.20;99.90;;;;;;5024183;28;20470;-52
2021/01/05 00:35:31;;;;;;;0.30;0.30;;;2.20;99.90;;;;;;5027259;28;20422;-52
2021/01/05 00:37:58;;;;;;;0.60;0.60;;;2.20;99.90;;;;;;5026896;28;20056;-52
2021/01/05 00:40:26;;;;;;;0.20;0.20;;;2.30;99.90;;;;;;5019898;28;20124;-52
2021/01/05 00:42:54;;;;;;;0.20;0.20;;;2.30;99.90;;;;;;5027275;28;20054;-52
2021/01/05 00:45:31;;;;;;;0.30;0.20;;;2.30;99.90;;;;;;5021367;28;20049;-54
2021/01/05 00:47:59;;;;;;;1.92;0.50;;;2.40;99.90;;;;;;5028823;28;20057;-53
2021/01/05 00:50:27;;;;;;;0.90;0.50;;;2.30;99.90;;;;;;5028330;28;20050;-52
2021/01/05 00:52:54;;;;;;;2.90;0.40;;;2.30;99.90;;;;;;5030277;28;20407;-52
2021/01/05 00:55:21;;;;;;;1.98;0.57;;;2.20;99.90;;;;;;5026495;28;20053;-54
2021/01/05 00:57:48;;;;;;;1.27;0.50;;;2.20;99.90;;;;;;5019067;28;20071;-52
2021/01/05 01:00:21;;;;;;;2.50;0.50;;;2.30;99.90;;;;;;5029523;28;20064;-52
2021/01/05 01:02:49;;;;;;;0.30;0.20;;;2.40;99.90;;;;;;5030083;28;20046;-51
2021/01/05 01:05:16;;;;;;;0.65;0.30;;;2.30;99.90;;;;;;5027155;28;20291;-52
2021/01/05 01:07:42;;;;;;;0.40;0.30;;;2.30;99.90;;;;;;5024952;28;20049;-53
2021/01/05 01:10:10;;;;;;;0.40;0.30;;;2.30;99.90;;;;;;5023982;28;20402;-55
2021/01/05 01:12:36;;;;;;;0.30;0.20;;;2.30;99.90;;;;;;5026918;28;20053;-54
2021/01/05 01:15:05;;;;;;;0.65;0.30;;;2.30;99.90;;;;;;5029427;28;20451;-52
2021/01/05 01:17:31;;;;;;;0.38;0.20;;;2.30;99.90;;;;;;5032155;28;20061;-52
2021/01/05 01:19:58;;;;;;;0.30;0.20;;;2.30;99.90;;;;;;5027502;28;20052;-52
2021/01/05 01:22:25;;;;;;;0.40;0.30;;;2.30;99.90;;;;;;5023880;28;20486;-52
2021/01/05 01:24:52;;;;;;;0.30;0.30;;;2.30;99.90;;;;;;5030035;28;20380;-54
2021/01/05 01:27:20;;;;;;;0.40;0.40;;;2.30;99.90;;;;;;5018520;28;20062;-53
2021/01/05 01:29:46;;;;;;;1.02;0.70;;;2.30;99.90;;;;;;5029113;28;20045;-55
2021/01/05 01:32:13;;;;;;;2.15;0.60;;;2.30;99.90;;;;;;5027907;28;20049;-52
2021/01/05 01:34:40;;;;;;;1.45;0.70;;;2.30;99.90;;;;;;5032647;28;20475;-53
2021/01/05 01:37:12;;;;;;;0.93;0.50;;;2.40;99.90;;;;;;5029994;28;20057;-52
2021/01/05 01:39:41;;;;;;;0.55;0.40;;;2.40;99.90;;;;;;5024722;28;20518;-52
2021/01/05 01:42:09;;;;;;;1.73;0.40;;;2.40;99.90;;;;;;5031076;28;20041;-52
2021/01/05 01:44:38;;;;;;;0.50;0.32;;;2.30;99.90;;;;;;5028857;28;20053;-52
2021/01/05 01:47:31;;;;;;;0.45;0.30;;;2.40;99.90;;;;;;5029922;28;20474;-51
2021/01/05 01:50:04;;;;;;;0.40;0.40;;;2.40;99.90;;;;;;5030672;28;20053;-52
2021/01/05 01:53:15;;;;;;;0.50;0.35;;;2.30;99.90;;;;;;5029408;28;20513;-52
2021/01/05 01:55:47;;;;;;;1.17;0.60;;;2.20;99.90;;;;;;5029685;28;20048;-52
2021/01/05 01:58:17;;;;;;;0.70;0.60;;;2.20;99.90;;;;;;5030103;28;20503;-52
2021/01/05 02:01:22;;;;;;;1.20;0.60;;;2.20;99.90;;;;;;5030154;28;20475;-52
2021/01/05 02:04:30;;;;;;;2.45;0.40;;;2.20;99.90;;;;;;5029051;28;20053;-52
2021/01/05 02:07:10;;;;;;;1.00;0.40;;;2.20;99.90;;;;;;5029390;28;20682;-52
2021/01/05 02:10:12;;;;;;;0.40;0.30;;;2.20;99.90;;;;;;5029922;28;20454;-52
2021/01/05 02:12:42;;;;;;;0.40;0.30;;;2.30;99.90;;;;;;5026784;28;20049;-54
2021/01/05 02:15:53;;;;;;;0.63;0.30;;;2.30;99.90;;;;;;5028824;28;20049;-51
2021/01/05 02:18:39;;;;;;;0.50;0.30;;;2.30;99.90;;;;;;5029548;28;20041;-51
2021/01/05 02:21:13;;;;;;;0.30;0.28;;;2.30;99.90;;;;;;5030067;28;20489;-53
2021/01/05 02:24:17;;;;;;;0.90;0.30;;;2.30;99.90;;;;;;5028761;28;20045;-52
2021/01/05 02:26:58;;;;;;;0.65;0.30;;;2.30;99.90;;;;;;5030059;28;20053;-52
2021/01/05 02:29:34;;;;;;;0.40;0.20;;;2.40;99.90;;;;;;5030464;28;20053;-52
2021/01/05 02:32:37;;;;;;;0.40;0.32;;;2.30;99.90;;;;;;5021368;28;20065;-52
2021/01/05 02:35:27;;;;;;;0.40;0.30;;;2.30;99.90;;;;;;5030226;28;20073;-54
2021/01/05 02:38:05;;;;;;;0.38;0.35;;;2.30;99.90;;;;;;5032857;28;20052;-52
2021/01/05 02:40:38;;;;;;;0.50;0.40;;;2.30;99.90;;;;;;5032142;28;20049;-53
2021/01/05 02:43:21;;;;;;;0.40;0.30;;;2.30;99.90;;;;;;5026430;28;20071;-51
2021/01/05 02:45:58;;;;;;;0.32;0.30;;;2.30;99.90;;;;;;5015882;28;20045;-52
2021/01/05 02:48:40;;;;;;;0.50;0.40;;;2.30;99.90;;;;;;5028398;28;20049;-55
2021/01/05 02:51:10;;;;;;;0.47;0.40;;;2.30;99.90;;;;;;5025275;28;20049;-52
2021/01/05 02:54:14;;;;;;;1.13;0.50;;;2.20;99.90;;;;;;5031202;28;20049;-55
2021/01/05 02:56:59;;;;;;;0.57;0.40;;;2.30;99.90;;;;;;5030660;28;20057;-53
2021/01/05 02:59:58;;;;;;;0.65;0.43;;;2.30;99.90;;;;;;5032033;28;20053;-52
2021/01/05 03:02:34;;;;;;;0.50;0.40;;;2.30;99.90;;;;;;5028478;28;20045;-51
2021/01/05 03:05:06;;;;;;;1.50;0.50;;;2.20;99.90;;;;;;5025606;28;20809;-52
2021/01/05 03:07:33;;;;;;;0.43;0.40;;;2.30;99.90;;;;;;5019891;28;20089;-54
2021/01/05 03:10:02;;;;;;;0.50;0.40;;;2.30;99.90;;;;;;5026414;28;20068;-52
2021/01/05 03:12:55;;;;;;;0.60;0.50;;;2.30;99.90;;;;;;5025566;28;20490;-52
2021/01/05 03:15:42;;;;;;;0.60;0.50;;;2.40;99.90;;;;;;5030858;28;20525;-53
2021/01/05 03:18:22;;;;;;;0.50;0.40;;;2.40;99.90;;;;;;5030265;28;20057;-52
2021/01/05 03:21:15;;;;;;;0.55;0.40;;;2.30;99.90;;;;;;5030573;28;20052;-52
2021/01/05 03:23:45;;;;;;;0.40;0.32;;;2.20;99.90;;;;;;5018871;28;20052;-52
2021/01/05 03:26:15;;;;;;;0.40;0.40;;;2.20;99.90;;;;;;5029553;28;20796;-51
2021/01/05 03:28:43;;;;;;;0.47;0.40;;;2.20;99.90;;;;;;5018378;28;20537;-54
2021/01/05 03:31:27;;;;;;;0.50;0.30;;;2.20;99.90;;;;;;5021335;28;20096;-52
2021/01/05 03:33:59;;;;;;;0.40;0.35;;;2.20;99.90;;;;;;5022997;28;20410;-54
2021/01/05 03:36:26;;;;;;;0.57;0.40;;;2.20;99.90;;;;;;5021198;28;20471;-52
2021/01/05 03:38:52;;;;;;;2.55;0.40;;;2.30;99.90;;;;;;5025976;28;20391;-54
2021/01/05 03:41:19;;;;;;;0.45;0.40;;;2.20;99.90;;;;;;5015775;28;20048;-55
2021/01/05 03:43:46;;;;;;;0.40;0.40;;;2.30;99.90;;;;;;5024850;28;20061;-53
2021/01/05 03:46:13;;;;;;;0.55;0.45;;;2.20;99.90;;;;;;5028057;28;20053;-52
2021/01/05 03:48:40;;;;;;;1.77;0.50;;;2.20;99.90;;;;;;5029490;28;20058;-51
2021/01/05 03:51:07;;;;;;;1.75;0.50;;;2.20;99.90;;;;;;5030063;28;20049;-52
2021/01/05 03:53:34;;;;;;;0.60;0.57;;;2.20;99.90;;;;;;5028197;28;20057;-52
2021/01/05 03:56:00;;;;;;;0.95;0.50;;;2.20;99.90;;;;;;5027583;28;20052;-52
2021/01/05 03:58:27;;;;;;;0.50;0.50;;;2.20;99.90;;;;;;5019914;28;20069;-53
2021/01/05 04:00:53;;;;;;;1.48;0.40;;;2.20;99.90;;;;;;5027359;28;20056;-52
2021/01/05 04:03:20;;;;;;;0.73;0.40;;;2.10;99.90;;;;;;5019291;28;20049;-53
2021/01/05 04:05:46;;;;;;;1.40;0.50;;;2.10;99.90;;;;;;5028554;28;20072;-55
2021/01/05 04:08:13;;;;;;;1.70;0.50;;;2.10;99.90;;;;;;5021911;28;20071;-52
2021/01/05 04:10:39;;;;;;;0.60;0.50;;;2.10;99.90;;;;;;5029713;28;20052;-52
2021/01/05 04:13:06;;;;;;;0.60;0.50;;;2.10;99.90;;;;;;5028731;28;20108;-53
2021/01/05 04:15:32;;;;;;;0.80;0.50;;;2.10;99.90;;;;;;5012890;28;20411;-54
2021/01/05 04:18:00;;;;;;;15.10;0.80;;;2.10;99.90;;;;;;5028382;28;20049;-52
2021/01/05 04:20:29;;;;;;;0.70;0.50;;;2.20;99.90;;;;;;5018390;28;20049;-55
2021/01/05 04:22:57;;;;;;;0.50;0.40;;;2.20;99.90;;;;;;5026491;28;20049;-51
2021/01/05 04:25:24;;;;;;;0.38;0.38;;;2.10;99.90;;;;;;5030310;28;20049;-52
2021/01/05 04:27:52;;;;;;;0.52;0.40;;;2.10;99.90;;;;;;5019996;28;20041;-52
2021/01/05 04:30:26;;;;;;;0.40;0.30;;;2.10;99.90;;;;;;5029798;28;20517;-52
2021/01/05 04:32:54;;;;;;;0.95;0.60;;;2.00;99.90;;;;;;5022472;28;20054;-53
2021/01/05 04:35:22;;;;;;;0.90;0.40;;;2.10;99.90;;;;;;5024181;28;20064;-52
2021/01/05 04:37:50;;;;;;;0.50;0.40;;;2.10;99.90;;;;;;5019726;28;20049;-55
2021/01/05 04:40:35;;;;;;;0.60;0.47;;;2.10;99.90;;;;;;5030849;28;20406;-52
2021/01/05 04:43:07;;;;;;;0.60;0.40;;;2.10;99.90;;;;;;5027091;28;20049;-52
2021/01/05 04:45:43;;;;;;;0.65;0.50;;;2.10;99.90;;;;;;5023292;28;20053;-53
2021/01/05 04:48:31;;;;;;;0.50;0.50;;;2.10;99.90;;;;;;5025064;28;20049;-52
2021/01/05 04:51:00;;;;;;;0.60;0.40;;;2.10;99.90;;;;;;5019964;28;20045;-52
2021/01/05 04:53:36;;;;;;;0.40;0.30;;;2.20;99.90;;;;;;5018829;28;20050;-52
2021/01/05 04:56:07;;;;;;;0.50;0.40;;;2.20;99.90;;;;;;5024797;28;20080;-55
2021/01/05 04:58:57;;;;;;;0.40;0.32;;;2.20;99.90;;;;;;5030755;28;20513;-52
2021/01/05 05:01:27;;;;;;;0.50;0.35;;;2.20;99.90;;;;;;5033638;28;20464;-53
2021/01/05 05:04:16;;;;;;;0.63;0.40;;;2.20;99.90;;;;;;5032516;28;20053;-51
2021/01/05 05:06:46;;;;;;;1.52;0.40;;;2.20;99.90;;;;;;5019082;28;20057;-51
2021/01/05 05:09:23;;;;;;;0.40;0.40;;;2.30;99.90;;;;;;5028163;28;20061;-52
2021/01/05 05:11:57;;;;;;;0.70;0.50;;;2.30;99.90;;;;;;5018356;28;20049;-51
2021/01/05 05:14:51;;;;;;;0.75;0.65;;;2.30;99.90;;;;;;5032788;28;20060;-52
2021/01/05 05:17:21;;;;;;;;;;;2.30;99.90;;;;;;5031573;28;20052;-52
2021/01/05 05:20:03;;;;;;;0.60;0.50;;;2.30;99.90;;;;;;5034194;28;19932;-52
2021/01/05 05:22:38;;;;;;;0.40;0.38;;;2.30;99.90;;;;;;5031321;28;20058;-52
2021/01/05 05:25:13;;;;;;;0.40;0.40;;;2.30;99.90;;;;;;5030773;28;20041;-53
2021/01/05 05:28:02;;;;;;;0.50;0.40;;;2.30;99.90;;;;;;5031624;28;20049;-51
2021/01/05 05:30:38;;;;;;;0.73;0.47;;;2.30;99.90;;;;;;5028233;28;20049;-51
2021/01/05 05:33:30;;;;;;;0.50;0.40;;;2.20;99.90;;;;;;5024581;28;20477;-52
2021/01/05 05:36:24;;;;;;;0.43;0.40;;;2.20;99.90;;;;;;5029156;28;20446;-52
2021/01/05 05:39:07;;;;;;;0.50;0.50;;;2.20;99.90;;;;;;5029932;28;20041;-52
2021/01/05 05:41:36;;;;;;;0.40;0.30;;;2.20;99.90;;;;;;5031182;28;20059;-54
2021/01/05 05:44:06;;;;;;;0.30;0.30;;;2.20;99.90;;;;;;5027284;28;20046;-52
2021/01/05 05:46:39;;;;;;;0.20;0.20;;;2.20;99.90;;;;;;5022830;28;20087;-54
2021/01/05 05:49:26;;;;;;;;;;;2.10;99.90;;;;;;5022439;28;20467;-52
2021/01/05 05:51:57;;;;;;;0.40;0.32;;;2.10;99.90;;;;;;5025579;28;19929;-55
2021/01/05 05:54:24;;;;;;;3.63;0.20;;;2.20;99.90;;;;;;5029257;28;20053;-52
2021/01/05 05:57:29;;;;;;;0.73;0.25;;;2.20;99.90;;;;;;5032027;28;20053;-53
2021/01/05 06:00:14;;;;;;;0.30;0.30;;;2.10;99.90;;;;;;5031429;28;20057;-53
2021/01/05 06:02:41;;;;;;;2.05;0.20;;;2.20;99.90;;;;;;5023704;28;20045;-53
2021/01/05 06:05:28;;;;;;;0.70;0.30;;;2.20;99.90;;;;;;5028218;28;20068;-52
2021/01/05 06:07:56;;;;;;;0.35;0.30;;;2.20;99.90;;;;;;5021109;28;20392;-52
2021/01/05 06:10:23;;;;;;;0.40;0.30;;;2.20;99.90;;;;;;5026090;28;20041;-54
2021/01/05 06:12:50;;;;;;;0.70;0.47;;;2.20;99.90;;;;;;5030694;28;20521;-52
2021/01/05 06:15:17;;;;;;;0.40;0.30;;;2.20;99.90;;;;;;5018629;28;20046;-52
2021/01/05 06:17:44;;;;;;;0.30;0.28;;;2.20;99.90;;;;;;5028425;28;20072;-52
2021/01/05 06:20:11;;;;;;;0.32;0.25;;;2.20;99.90;;;;;;5021528;28;20442;-52
2021/01/05 06:22:37;;;;;;;0.35;0.30;;;2.20;99.90;;;;;;5029625;28;20053;-50
2021/01/05 06:25:06;;;;;;;0.40;0.30;;;2.20;99.90;;;;;;5030344;28;20100;-50
2021/01/05 06:27:33;;;;;;;0.40;0.30;;;2.30;99.90;;;;;;5031506;28;20053;-51
2021/01/05 06:30:00;;;;;;;0.38;0.30;;;2.20;99.90;;;;;;5031034;28;20056;-51
2021/01/05 06:32:27;;;;;;;0.40;0.40;;;2.20;99.90;;;;;;5030441;28;20049;-50
2021/01/05 06:34:55;;;;;;;2.22;0.40;;;2.20;99.90;;;;;;5025588;28;20057;-51
2021/01/05 06:37:24;;;;;;;1.95;0.40;;;2.30;99.90;;;;;;5031186;28;20057;-51
2021/01/05 06:39:50;;;;;;;1.27;0.80;;;2.30;99.90;;;;;;5030537;28;20057;-50
2021/01/05 06:42:17;;;;;;;1.60;1.50;;;2.30;99.90;;;;;;5029845;28;20057;-50
2021/01/05 06:44:45;;;;;;;0.63;0.60;;;2.30;99.90;;;;;;5033088;28;20143;-50
2021/01/05 06:47:13;;;;;;;0.60;0.60;;;2.20;99.90;;;;;;5023973;28;20057;-52
2021/01/05 06:49:41;;;;;;;0.50;0.50;;;2.20;99.90;;;;;;5030266;28;20046;-51
2021/01/05 06:52:08;;;;;;;0.40;0.40;;;2.30;99.90;;;;;;5028418;28;20383;-51
2021/01/05 06:54:35;;;;;;;0.80;0.52;;;2.20;99.90;;;;;;5031061;28;20045;-51
2021/01/05 06:57:02;;;;;;;1.45;0.60;;;2.30;99.90;;;;;;5030121;28;20410;-50
2021/01/05 06:59:28;;;;;;;1.00;0.38;;;2.20;99.90;;;;;;5023370;28;20052;-50
2021/01/05 07:02:03;;;;;;;0.55;0.30;;;2.20;99.90;;;;;;5022414;28;20061;-50
2021/01/05 07:04:30;;;;;;;6.13;1.65;;;2.20;99.90;;;;;;5022783;28;20054;-50
2021/01/05 07:06:57;;;;;;;7.78;4.88;;;2.20;99.90;;;;;;5017524;28;20042;-50
2021/01/05 07:09:28;;;;;;;7.97;2.95;;;2.20;99.90;;;;;;5028000;28;20053;-50
2021/01/05 07:11:54;;;;;;;0.75;0.60;;;2.20;99.90;;;;;;5020932;28;20064;-50
2021/01/05 07:14:23;;;;;;;1.15;0.60;;;2.30;99.90;;;;;;5026902;28;20049;-49
2021/01/05 07:16:50;;;;;;;144.27;56.15;;;2.30;99.90;;;;;;5016462;28;20506;-50
2021/01/05 07:19:17;;;;;;;74.20;28.80;;;2.30;99.90;;;;;;5031632;28;20053;-50
2021/01/05 07:21:44;;;;;;;17.02;6.82;;;2.20;99.90;;;;;;5029691;28;20041;-50
2021/01/05 07:24:12;;;;;;;1.85;0.75;;;2.20;99.90;;;;;;5025179;28;20049;-50
2021/01/05 07:26:42;;;;;;;2.83;0.90;;;2.20;99.90;;;;;;5026154;28;20422;-50
2021/01/05 07:29:13;;;;;;;1.30;1.20;;;2.20;99.90;;;;;;5011999;28;20057;-50
2021/01/05 07:31:39;;;;;;;1.42;0.80;;;2.20;99.90;;;;;;5030469;28;20068;-50
2021/01/05 07:34:06;;;;;;;0.93;0.73;;;2.20;99.90;;;;;;5027220;28;20045;-50
2021/01/05 07:36:37;;;;;;;40.38;18.08;;;2.10;99.90;;;;;;5030027;28;20458;-50
2021/01/05 07:39:29;;;;;;;3.28;1.13;;;2.00;99.90;;;;;;5029205;28;20050;-53
2021/01/05 07:42:17;;;;;;;0.75;0.60;;;1.90;99.90;;;;;;5013149;28;20056;-50
2021/01/05 07:44:46;;;;;;;11.73;3.65;;;1.90;99.90;;;;;;5029925;28;20152;-50
2021/01/05 07:47:14;;;;;;;0.98;0.80;;;1.80;99.90;;;;;;5029013;28;20038;-50
2021/01/05 07:49:41;;;;;;;0.88;0.60;;;1.70;99.90;;;;;;5023765;28;20052;-50
2021/01/05 07:52:21;;;;;;;8.18;1.50;;;1.70;99.90;;;;;;5028509;28;20041;-49
2021/01/05 07:54:49;;;;;;;1.10;1.00;;;1.50;99.90;;;;;;5030141;28;20491;-50
2021/01/05 07:57:16;;;;;;;1.50;0.50;;;1.50;99.90;;;;;;5026816;28;20056;-50
2021/01/05 07:59:43;;;;;;;1.80;0.50;;;1.50;99.90;;;;;;5021097;28;20051;-50
2021/01/05 08:02:10;;;;;;;0.82;0.40;;;1.40;99.90;;;;;;5021400;28;20045;-49
2021/01/05 08:04:39;;;;;;;0.50;0.30;;;1.40;99.90;;;;;;5020742;28;20056;-50
2021/01/05 08:07:07;;;;;;;1.08;0.45;;;1.30;99.90;;;;;;5030717;28;20046;-50
2021/01/05 08:09:36;;;;;;;3.05;1.45;;;1.10;99.90;;;;;;5029392;28;20049;-52
2021/01/05 08:12:03;;;;;;;8.85;3.65;;;1.00;99.90;;;;;;5030951;28;20053;-52
2021/01/05 08:14:29;;;;;;;3.88;1.10;;;0.90;99.90;;;;;;5028064;28;20093;-51
2021/01/05 08:16:56;;;;;;;2.88;1.00;;;0.80;99.90;;;;;;5017379;28;20064;-51
2021/01/05 08:19:23;;;;;;;1.00;0.90;;;0.70;99.90;;;;;;5027827;28;20471;-50
2021/01/05 08:21:49;;;;;;;3.55;0.93;;;0.70;99.90;;;;;;5029336;28;20060;-50
2021/01/05 08:24:18;;;;;;;14.73;1.60;;;0.70;99.90;;;;;;5028864;28;20053;-51
2021/01/05 08:26:45;;;;;;;55.15;3.80;;;0.70;99.90;;;;;;5026524;28;20053;-50
2021/01/05 08:29:11;;;;;;;48.25;8.13;;;0.50;99.90;;;;;;5028950;28;20068;-50
2021/01/05 08:31:41;;;;;;;18.23;2.03;;;0.40;99.90;;;;;;5029283;28;20125;-50
2021/01/05 08:34:08;;;;;;;64.72;19.88;;;0.40;99.90;;;;;;5030192;28;20053;-50
2021/01/05 08:36:35;;;;;;;42.67;23.05;;;0.50;99.90;;;;;;5027420;28;20479;-50
2021/01/05 08:39:04;;;;;;;39.10;20.95;;;0.60;99.90;;;;;;5028338;28;20041;-51
2021/01/05 08:41:31;;;;;;;23.77;16.92;;;0.60;99.90;;;;;;5028797;28;20053;-50
2021/01/05 08:43:57;;;;;;;35.60;22.05;;;0.60;99.90;;;;;;5029321;28;20042;-51
2021/01/05 08:46:26;;;;;;;5.10;1.98;;;0.70;99.90;;;;;;5012475;28;20384;-52
2021/01/05 08:48:53;;;;;;;0.80;0.60;;;0.60;99.90;;;;;;5025212;28;20083;-51
2021/01/05 08:51:22;;;;;;;6.03;0.52;;;0.60;99.90;;;;;;5015852;28;20037;-50
2021/01/05 08:53:50;;;;;;;11.55;0.60;;;0.80;99.90;;;;;;5030788;28;20053;-51
2021/01/05 08:56:21;;;;;;;0.90;0.80;;;0.70;99.90;;;;;;5028045;28;20049;-53
2021/01/05 08:58:49;;;;;;;3.05;2.33;;;0.80;99.90;;;;;;5030356;28;20057;-50
2021/01/05 09:01:16;;;;;;;67.95;17.65;;;0.80;99.90;;;;;;5026992;28;20475;-50
2021/01/05 09:03:42;;;;;;;22.60;10.32;;;0.60;99.90;;;;;;5028666;28;20050;-51
2021/01/05 09:06:11;;;;;;;20.50;9.38;;;0.60;99.90;;;;;;5024422;28;20053;-52
2021/01/05 09:08:39;;;;;;;34.53;5.93;;;0.60;99.90;;;;;;5018129;28;20064;-53
2021/01/05 09:11:08;;;;;;;15.68;7.45;;;0.60;99.90;;;;;;5029302;28;20053;-51
2021/01/05 09:13:37;;;;;;;28.50;8.95;;;0.60;99.90;;;;;;5028490;28;20418;-50
2021/01/05 09:16:03;;;;;;;15.02;8.30;;;0.70;99.90;;;;;;5030266;28;20050;-51
2021/01/05 09:18:30;;;;;;;8.15;5.50;;;0.70;99.90;;;;;;5026126;28;20045;-50
2021/01/05 09:20:56;;;;;;;26.98;11.77;;;0.70;99.90;;;;;;5027503;28;20049;-50
2021/01/05 09:23:24;;;;;;;36.55;17.73;;;0.80;99.90;;;;;;5030064;28;20041;-51
2021/01/05 09:25:55;;;;;;;41.70;18.90;;;0.80;99.90;;;;;;5027286;28;20077;-51
2021/01/05 09:28:26;;;;;;;34.17;15.30;;;0.70;99.90;;;;;;5028888;28;20533;-50
2021/01/05 09:30:53;;;;;;;30.27;16.35;;;0.60;99.90;;;;;;5027930;28;20505;-51
2021/01/05 09:33:21;;;;;;;74.47;13.10;;;0.70;99.90;;;;;;5029982;28;20087;-51
2021/01/05 09:35:48;;;;;;;83.22;14.55;;;0.70;99.90;;;;;;5026438;28;20057;-51
2021/01/05 09:38:15;;;;;;;39.72;7.88;;;0.60;99.90;;;;;;5025776;28;20045;-50
2021/01/05 09:40:42;;;;;;;36.40;15.77;;;0.60;99.90;;;;;;5024589;28;20589;-51
2021/01/05 09:43:11;;;;;;;17.48;10.10;;;0.60;99.90;;;;;;5026835;28;20136;-50
2021/01/05 09:45:39;;;;;;;63.50;29.05;;;0.60;99.90;;;;;;5020946;28;20501;-50
2021/01/05 09:48:10;;;;;;;28.65;13.93;;;0.70;99.90;;;;;;5024971;28;20056;-52
2021/01/05 09:50:40;;;;;;;91.78;49.17;;;0.70;99.90;;;;;;5029176;28;20050;-50
2021/01/05 09:53:07;;;;;;;54.38;29.08;;;0.70;99.90;;;;;;5028920;28;20060;-51
2021/01/05 09:55:34;;;;;;;50.00;19.25;;;0.70;99.90;;;;;;5016805;28;20046;-51
2021/01/05 09:58:01;;;;;;;26.20;13.77;;;0.70;99.90;;;;;;5032838;28;20041;-50
2021/01/05 10:00:28;;;;;;;23.58;11.68;;;0.70;99.90;;;;;;5031039;28;20060;-50
2021/01/05 10:02:54;;;;;;;4.72;3.13;;;0.70;99.90;;;;;;5032646;28;20091;-51
2021/01/05 10:05:22;;;;;;;4.38;2.33;;;0.70;99.90;;;;;;5031977;28;20058;-50
2021/01/05 10:07:49;;;;;;;49.17;11.80;;;0.80;99.90;;;;;;5016515;28;20053;-50
2021/01/05 10:10:20;;;;;;;17.80;7.60;;;0.80;99.90;;;;;;5029373;28;20081;-50
2021/01/05 10:12:47;;;;;;;31.63;11.77;;;0.80;99.90;;;;;;5031079;28;20062;-52
2021/01/05 10:15:16;;;;;;;48.25;21.20;;;0.80;99.90;;;;;;5031318;28;20041;-53
2021/01/05 10:17:42;;;;;;;10.98;7.15;;;0.80;99.90;;;;;;5032124;28;20046;-50
2021/01/05 10:20:11;;;;;;;48.83;14.20;;;0.80;99.90;;;;;;5031210;28;20052;-50
2021/01/05 10:22:38;;;;;;;37.88;18.05;;;0.80;99.90;;;;;;5030442;28;20049;-50
2021/01/05 10:25:08;;;;;;;6.82;4.40;;;0.90;99.90;;;;;;5015743;28;20473;-51
2021/01/05 10:27:35;;;;;;;25.70;6.40;;;1.00;99.90;;;;;;5030510;28;20057;-50
2021/01/05 10:30:07;;;;;;;45.53;11.05;;;1.00;99.90;;;;;;5022608;28;20054;-50
2021/01/05 10:32:34;;;;;;;6.78;4.00;;;0.80;99.90;;;;;;5025229;28;20046;-50
2021/01/05 10:35:00;;;;;;;16.63;8.52;;;0.90;99.90;;;;;;5021360;28;20474;-50
2021/01/05 10:37:26;;;;;;;10.68;6.57;;;0.80;99.90;;;;;;5018360;28;20046;-50
2021/01/05 10:40:05;;;;;;;28.50;19.02;;;0.80;99.90;;;;;;5027676;28;20045;-52
2021/01/05 10:42:32;;;;;;;13.93;10.88;;;0.90;99.90;;;;;;5023348;28;20050;-50
2021/01/05 10:44:59;;;;;;;17.35;13.25;;;0.90;99.90;;;;;;5032079;28;20053;-50
2021/01/05 10:47:25;;;;;;;18.90;10.90;;;0.90;99.90;;;;;;5031564;28;20052;-51
2021/01/05 10:49:52;;;;;;;14.23;8.73;;;0.90;99.90;;;;;;5030342;28;20053;-51
2021/01/05 10:52:18;;;;;;;9.43;6.80;;;1.00;99.90;;;;;;5028638;28;20073;-49
2021/01/05 10:54:45;;;;;;;11.60;8.75;;;0.90;99.90;;;;;;5023799;28;20406;-50
2021/01/05 10:57:11;;;;;;;8.18;3.92;;;0.90;99.90;;;;;;5031208;28;20054;-50
2021/01/05 10:59:41;;;;;;;3.92;1.88;;;0.90;99.90;;;;;;5032060;28;20056;-50
2021/01/05 11:02:09;;;;;;;3.67;3.33;;;0.90;99.90;;;;;;5028508;28;20840;-50
2021/01/05 11:04:36;;;;;;;1.13;1.02;;;1.00;99.90;;;;;;5030327;28;20049;-49
2021/01/05 11:07:11;;;;;;;2.45;2.22;;;1.10;99.90;;;;;;5032062;28;20046;-50
2021/01/05 11:09:38;;;;;;;2.17;1.10;;;1.10;99.90;;;;;;5028904;28;20046;-50
2021/01/05 11:12:10;;;;;;;2.80;1.08;;;1.00;99.90;;;;;;5031318;28;20061;-50
2021/01/05 11:14:46;;;;;;;8.85;4.32;;;1.10;99.90;;;;;;5030637;28;20053;-50
2021/01/05 11:17:12;;;;;;;6.32;3.70;;;1.00;99.90;;;;;;5026331;28;20046;-50
2021/01/05 11:19:41;;;;;;;8.93;5.65;;;1.10;99.90;;;;;;5027821;28;20053;-50
2021/01/05 11:22:16;;;;;;;14.02;7.60;;;1.10;99.90;;;;;;5031358;28;20076;-50
2021/01/05 11:24:44;;;;;;;10.00;5.40;;;1.00;99.90;;;;;;5025613;28;20052;-50
2021/01/05 11:27:16;;;;;;;21.55;13.43;;;1.00;99.90;;;;;;5030432;28;20061;-50
2021/01/05 11:29:44;;;;;;;28.75;16.42;;;1.10;99.90;;;;;;5025774;28;20394;-50
2021/01/05 11:32:16;;;;;;;63.45;35.80;;;1.10;99.90;;;;;;5027195;28;20045;-50
2021/01/05 11:34:44;;;;;;;30.92;19.38;;;1.10;99.90;;;;;;5028092;28;20057;-51
2021/01/05 11:37:13;;;;;;;26.73;16.58;;;1.00;99.90;;;;;;5027857;28;20045;-50
2021/01/05 11:39:42;;;;;;;12.05;8.32;;;1.00;99.90;;;;;;5029065;28;20494;-50
2021/01/05 11:42:10;;;;;;;19.55;12.38;;;1.00;99.90;;;;;;5031366;28;20049;-50
2021/01/05 11:44:38;;;;;;;9.80;6.55;;;1.00;99.90;;;;;;5029856;28;20049;-51
2021/01/05 11:47:05;;;;;;;6.57;3.67;;;1.00;99.90;;;;;;5029585;28;20049;-50
2021/01/05 11:49:32;;;;;;;10.55;6.85;;;1.00;99.90;;;;;;5025780;28;20064;-53
2021/01/05 11:51:59;;;;;;;22.55;14.05;;;1.00;99.90;;;;;;5027704;28;20053;-50
2021/01/05 11:54:26;;;;;;;22.65;13.25;;;1.00;99.90;;;;;;5028333;28;20055;-50
2021/01/05 11:56:57;;;;;;;12.73;7.20;;;1.10;99.90;;;;;;5026974;28;20050;-50
2021/01/05 11:59:25;;;;;;;26.55;13.25;;;1.00;99.90;;;;;;5030107;28;20056;-51
2021/01/05 12:01:52;;;;;;;22.75;15.45;;;1.00;99.90;;;;;;5029762;28;20055;-51
2021/01/05 12:04:19;;;;;;;7.70;6.00;;;1.10;99.90;;;;;;5030758;28;20055;-52
2021/01/05 12:06:50;;;;;;;1.20;1.10;;;1.10;99.90;;;;;;5027703;28;20045;-51
2021/01/05 12:09:19;;;;;;;2.17;1.20;;;1.10;99.90;;;;;;5027165;28;20053;-50
2021/01/05 12:11:45;;;;;;;1.48;1.17;;;1.10;99.90;;;;;;5026009;28;21379;-50
2021/01/05 12:14:13;;;;;;;1.10;1.00;;;1.10;99.90;;;;;;5014105;28;20055;-51
2021/01/05 12:16:50;;;;;;;2.83;1.60;;;1.10;99.90;;;;;;5021703;28;20081;-51
2021/01/05 12:19:22;;;;;;;3.30;2.50;;;1.10;99.90;;;;;;5026627;28;20410;-50
2021/01/05 12:21:53;;;;;;;8.38;4.80;;;1.10;99.90;;;;;;5030328;28;20056;-51
2021/01/05 12:24:22;;;;;;;4.70;3.58;;;1.10;99.90;;;;;;5028278;28;20124;-51
2021/01/05 12:26:50;;;;;;;3.70;2.88;;;1.10;99.90;;;;;;5013427;28;20057;-52
2021/01/05 12:29:20;;;;;;;4.22;2.75;;;1.20;99.90;;;;;;5026625;28;20367;-51
2021/01/05 12:32:02;;;;;;;4.75;2.83;;;1.30;99.90;;;;;;5025565;28;20038;-51
2021/01/05 12:34:31;;;;;;;3.55;2.47;;;1.40;99.90;;;;;;5028806;28;20054;-51
2021/01/05 12:37:04;;;;;;;2.85;1.20;;;1.40;99.90;;;;;;5028869;28;20052;-50
2021/01/05 12:39:32;;;;;;;3.10;2.38;;;1.50;99.90;;;;;;5027080;28;20045;-51
2021/01/05 12:42:19;;;;;;;3.95;3.55;;;1.50;99.90;;;;;;5024655;28;20042;-53
2021/01/05 12:44:46;;;;;;;18.83;13.43;;;1.50;99.90;;;;;;5011249;28;20058;-51
2021/01/05 12:47:13;;;;;;;12.70;9.98;;;1.50;99.90;;;;;;5028715;28;20049;-50
2021/01/05 12:49:44;;;;;;;16.50;11.85;;;1.50;99.90;;;;;;5026459;28;20045;-50
2021/01/05 12:52:11;;;;;;;6.22;4.20;;;1.50;99.90;;;;;;5023610;28;20041;-51
2021/01/05 12:54:40;;;;;;;8.00;6.80;;;1.50;99.90;;;;;;5027828;28;20050;-51
2021/01/05 12:57:08;;;;;;;33.22;21.25;;;1.40;99.90;;;;;;5017923;28;20041;-53
2021/01/05 12:59:35;;;;;;;32.90;21.35;;;1.40;99.90;;;;;;5021478;28;20069;-51
2021/01/05 13:02:06;;;;;;;25.30;17.08;;;1.50;99.90;;;;;;5020932;28;20041;-51
2021/01/05 13:04:33;;;;;;;11.30;6.60;;;1.40;99.90;;;;;;5030336;28;20053;-52
2021/01/05 13:06:59;;;;;;;16.17;9.70;;;1.50;99.90;;;;;;5022234;28;20061;-51
2021/01/05 13:09:27;;;;;;;39.28;24.92;;;1.50;99.90;;;;;;5027800;28;20045;-51
2021/01/05 13:11:53;;;;;;;36.70;24.70;;;1.50;99.90;;;;;;5022798;28;20050;-51
2021/01/05 13:14:22;;;;;;;35.38;21.08;;;1.50;99.90;;;;;;5030318;28;20378;-51